createdAt,value
2023-03-26T00:00:01.596Z,97.57
2023-03-26T00:02:35.528Z,97.06
2023-03-26T00:05:07.466Z,97.00
2023-03-26T00:07:40.401Z,96.49
2023-03-26T00:10:12.690Z,95.81
2023-03-26T00:12:47.623Z,96.01
2023-03-26T00:15:20.459Z,96.06
2023-03-26T00:17:54.660Z,95.52
2023-03-26T00:20:28.561Z,95.24
2023-03-26T00:23:02.261Z,94.76
2023-03-26T00:25:35.878Z,94.21
2023-03-26T00:28:11.258Z,93.86
2023-03-26T00:30:43.259Z,93.70
2023-03-26T00:33:18.520Z,93.33
2023-03-26T00:35:55.394Z,92.73
2023-03-26T00:38:29.467Z,92.84
2023-03-26T00:41:07.293Z,92.44
2023-03-26T00:43:41.844Z,90.99
2023-03-26T00:46:15.477Z,90.91
2023-03-26T00:48:48.013Z,91.46
2023-03-26T00:51:21.778Z,90.47
2023-03-26T00:53:54.201Z,90.59
2023-03-26T00:56:25.592Z,91.17
2023-03-26T00:59:00.578Z,89.86
2023-03-26T01:01:35.657Z,89.94
2023-03-26T01:04:28.756Z,90.16
2023-03-26T01:07:05.027Z,89.70
2023-03-26T01:09:43.682Z,89.99
2023-03-26T01:12:19.758Z,89.90
2023-03-26T01:14:58.169Z,90.30
2023-03-26T01:17:34.447Z,91.30
2023-03-26T01:20:16.014Z,92.41
2023-03-26T01:22:52.852Z,95.14
2023-03-26T01:25:34.994Z,96.61
2023-03-26T01:28:13.442Z,98.45
2023-03-26T01:30:52.669Z,98.39
2023-03-26T01:33:34.558Z,99.96
2023-03-26T01:36:17.366Z,99.23
2023-03-26T01:39:01.216Z,99.42
2023-03-26T01:41:44.907Z,99.35
2023-03-26T01:44:29.185Z,100.00
2023-03-26T01:47:04.560Z,100.00
2023-03-26T01:49:37.160Z,100.00
2023-03-26T01:52:18.830Z,100.00
2023-03-26T01:54:50.747Z,99.23
2023-03-26T01:57:35.978Z,99.48
2023-03-26T02:00:21.662Z,99.41
2023-03-26T02:03:05.172Z,100.00
2023-03-26T02:05:40.791Z,100.00
2023-03-26T02:08:23.031Z,100.00
2023-03-26T02:10:59.370Z,100.00
2023-03-26T02:13:34.500Z,100.00
2023-03-26T02:16:10.895Z,100.00
2023-03-26T02:18:44.687Z,100.00
2023-03-26T02:21:20.584Z,100.00
2023-03-26T02:23:58.587Z,100.00
2023-03-26T02:26:30.089Z,100.00
2023-03-26T02:29:05.123Z,100.00
2023-03-26T02:31:37.470Z,100.00
2023-03-26T02:34:09.200Z,100.00
2023-03-26T02:36:43.356Z,100.00
2023-03-26T02:39:16.136Z,100.00
2023-03-26T02:41:47.619Z,100.00
2023-03-26T02:44:22.171Z,100.00
2023-03-26T02:46:53.713Z,100.00
2023-03-26T02:49:25.870Z,100.00
2023-03-26T02:51:58.173Z,100.00
2023-03-26T02:54:30.122Z,100.00
2023-03-26T02:57:01.544Z,100.00
2023-03-26T02:59:36.848Z,100.00
2023-03-26T03:02:08.455Z,100.00
2023-03-26T03:04:40.758Z,100.00
2023-03-26T03:07:18.882Z,100.00
2023-03-26T03:09:51.626Z,100.00
2023-03-26T03:12:23.202Z,100.00
2023-03-26T03:14:57.714Z,100.00
2023-03-26T03:17:29.332Z,100.00
2023-03-26T03:20:01.235Z,100.00
2023-03-26T03:22:34.468Z,100.00
2023-03-26T03:25:09.985Z,100.00
2023-03-26T03:27:42.264Z,100.00
2023-03-26T03:30:17.978Z,100.00
2023-03-26T03:32:49.589Z,100.00
2023-03-26T03:35:21.610Z,100.00
2023-03-26T03:37:55.813Z,100.00
2023-03-26T03:40:27.798Z,100.00
2023-03-26T03:42:59.121Z,100.00
2023-03-26T03:45:34.559Z,100.00
2023-03-26T03:48:06.173Z,100.00
2023-03-26T03:50:37.972Z,100.00
2023-03-26T03:53:09.589Z,100.00
2023-03-26T03:55:42.369Z,99.55
2023-03-26T03:58:15.012Z,99.57
2023-03-26T04:00:49.762Z,98.63
2023-03-26T04:03:33.264Z,98.45
2023-03-26T04:06:07.232Z,99.11
2023-03-26T04:08:39.178Z,99.05
2023-03-26T04:11:11.303Z,98.50
2023-03-26T04:13:43.214Z,98.61
2023-03-26T04:16:18.864Z,98.97
2023-03-26T04:18:51.014Z,98.58
2023-03-26T04:21:24.567Z,99.51
2023-03-26T04:23:56.928Z,100.00
2023-03-26T04:26:32.081Z,100.00
2023-03-26T04:29:07.116Z,100.00
2023-03-26T04:31:43.723Z,100.00
2023-03-26T04:34:24.749Z,100.00
2023-03-26T04:36:57.497Z,100.00
2023-03-26T04:39:30.733Z,100.00
2023-03-26T04:42:02.906Z,100.00
2023-03-26T04:44:35.718Z,100.00
2023-03-26T04:47:10.772Z,100.00
2023-03-26T04:49:42.624Z,100.00
2023-03-26T04:52:15.877Z,100.00
2023-03-26T04:54:49.105Z,100.00
2023-03-26T04:57:28.367Z,99.81
2023-03-26T05:00:00.408Z,99.96
2023-03-26T05:02:38.020Z,99.79
2023-03-26T05:05:10.597Z,99.98
2023-03-26T05:07:42.795Z,98.90
2023-03-26T05:10:20.585Z,99.70
2023-03-26T05:12:52.779Z,98.94
2023-03-26T05:15:25.772Z,98.91
2023-03-26T05:18:00.756Z,98.93
2023-03-26T05:20:34.133Z,99.57
2023-03-26T05:23:07.798Z,100.00
2023-03-26T05:25:40.042Z,100.00
2023-03-26T05:28:14.529Z,100.00
2023-03-26T05:30:46.745Z,99.83
2023-03-26T05:33:21.943Z,99.49
2023-03-26T05:36:04.600Z,100.00
2023-03-26T05:38:40.079Z,99.56
2023-03-26T05:41:14.632Z,98.57
2023-03-26T05:43:48.855Z,98.88
2023-03-26T05:46:23.371Z,98.33
2023-03-26T05:48:58.781Z,97.77
2023-03-26T05:51:30.745Z,97.23
2023-03-26T05:54:03.051Z,96.85
2023-03-26T05:56:34.992Z,97.79
2023-03-26T05:59:07.185Z,96.85
2023-03-26T06:01:39.006Z,96.88
2023-03-26T06:04:16.576Z,96.43
2023-03-26T06:06:48.660Z,96.75
2023-03-26T06:09:20.917Z,96.52
2023-03-26T06:11:53.609Z,95.33
2023-03-26T06:14:25.804Z,94.51
2023-03-26T06:16:57.748Z,94.06
2023-03-26T06:19:32.569Z,94.18
2023-03-26T06:22:04.341Z,94.70
2023-03-26T06:24:36.978Z,95.04
2023-03-26T06:27:08.802Z,95.28
2023-03-26T06:29:41.018Z,94.31
2023-03-26T06:32:19.611Z,93.85
2023-03-26T06:34:55.126Z,92.45
2023-03-26T06:37:26.806Z,92.05
2023-03-26T06:39:58.928Z,92.44
2023-03-26T06:43:08.668Z,92.22
2023-03-26T06:45:24.340Z,92.81
2023-03-26T06:47:56.247Z,95.44
2023-03-26T06:50:32.533Z,95.82
2023-03-26T06:53:04.371Z,93.56
2023-03-26T06:55:36.571Z,93.27
2023-03-26T06:58:08.434Z,92.81
2023-03-26T07:00:40.712Z,91.83
2023-03-26T07:03:12.505Z,90.11
2023-03-26T07:05:47.302Z,87.01
2023-03-26T07:08:19.891Z,87.86
2023-03-26T07:10:52.309Z,86.36
2023-03-26T07:13:24.341Z,86.56
2023-03-26T07:15:56.630Z,87.81
2023-03-26T07:18:28.609Z,86.19
2023-03-26T07:21:03.699Z,87.61
2023-03-26T07:23:36.111Z,88.13
2023-03-26T07:26:26.226Z,88.53
2023-03-26T07:29:05.419Z,86.17
2023-03-26T07:31:46.273Z,86.11
2023-03-26T07:34:35.138Z,84.23
2023-03-26T07:37:17.800Z,84.96
2023-03-26T07:39:58.528Z,84.97
2023-03-26T07:42:44.513Z,83.71
2023-03-26T07:45:25.813Z,82.95
2023-03-26T07:47:57.832Z,83.12
2023-03-26T07:50:29.712Z,84.46
2023-03-26T07:53:04.619Z,83.64
2023-03-26T07:55:36.982Z,83.11
2023-03-26T07:58:25.055Z,83.76
2023-03-26T08:01:04.212Z,83.42
2023-03-26T08:04:23.632Z,83.72
2023-03-26T08:07:01.612Z,84.74
2023-03-26T08:09:43.397Z,82.36
2023-03-26T08:12:26.133Z,83.63
2023-03-26T08:15:08.643Z,82.08
2023-03-26T08:17:48.155Z,83.19
2023-03-26T08:20:32.220Z,84.37
2023-03-26T08:23:12.305Z,84.33
2023-03-26T08:26:03.062Z,85.11
2023-03-26T08:28:51.100Z,83.36
2023-03-26T08:31:36.749Z,84.21
2023-03-26T08:34:10.336Z,83.61
2023-03-26T08:36:43.353Z,83.29
2023-03-26T08:39:14.929Z,82.69
2023-03-26T08:42:14.797Z,82.25
2023-03-26T08:45:15.701Z,82.31
2023-03-26T08:48:17.688Z,83.88
2023-03-26T08:50:48.784Z,81.56
2023-03-26T08:53:40.687Z,81.64
2023-03-26T08:56:23.411Z,79.77
2023-03-26T08:59:00.925Z,80.35
2023-03-26T09:01:58.470Z,79.90
2023-03-26T09:04:45.152Z,78.81
2023-03-26T09:07:45.845Z,78.78
2023-03-26T09:10:48.416Z,78.56
2023-03-26T09:13:38.057Z,78.11
2023-03-26T09:16:32.145Z,77.64
2023-03-26T09:19:30.238Z,77.83
2023-03-26T09:22:29.122Z,76.17
2023-03-26T09:25:21.612Z,76.61
2023-03-26T09:28:08.520Z,76.78
2023-03-26T09:30:42.896Z,76.10
2023-03-26T09:33:35.259Z,75.22
2023-03-26T09:36:25.174Z,76.18
2023-03-26T09:39:07.769Z,76.50
2023-03-26T09:41:46.391Z,83.31
2023-03-26T09:44:51.407Z,89.41
2023-03-26T09:47:43.456Z,90.83
2023-03-26T09:50:24.493Z,93.26
2023-03-26T09:53:15.907Z,94.36
2023-03-26T09:55:53.305Z,95.23
2023-03-26T09:58:56.057Z,94.24
2023-03-26T10:01:42.678Z,94.31
2023-03-26T10:04:27.822Z,93.74
2023-03-26T10:07:10.108Z,91.61
2023-03-26T10:09:57.225Z,91.32
2023-03-26T10:12:38.904Z,89.25
2023-03-26T10:15:30.639Z,88.15
2023-03-26T10:18:27.188Z,87.44
2023-03-26T10:21:08.747Z,88.57
2023-03-26T10:24:37.050Z,89.68
2023-03-26T10:27:28.661Z,89.18
2023-03-26T10:30:39.597Z,89.24
2023-03-26T10:33:25.212Z,89.32
2023-03-26T10:36:14.341Z,89.35
2023-03-26T10:39:03.555Z,88.45
2023-03-26T10:41:46.772Z,88.53
2023-03-26T10:44:53.798Z,88.22
2023-03-26T10:47:49.353Z,87.79
2023-03-26T10:50:50.592Z,87.20
2023-03-26T10:53:35.123Z,86.69
2023-03-26T10:56:16.875Z,85.71
2023-03-26T10:58:50.604Z,86.53
2023-03-26T11:01:39.553Z,86.55
2023-03-26T11:04:28.492Z,87.07
2023-03-26T11:07:12.080Z,86.49
2023-03-26T11:09:52.931Z,85.86
2023-03-26T11:12:36.662Z,84.84
2023-03-26T11:15:23.385Z,82.38
2023-03-26T11:18:09.985Z,81.38
2023-03-26T11:20:51.078Z,79.40
2023-03-26T11:23:37.084Z,80.09
2023-03-26T11:26:14.704Z,77.58
2023-03-26T11:29:03.849Z,75.74
2023-03-26T11:32:08.960Z,74.18
2023-03-26T11:34:48.538Z,75.52
2023-03-26T11:37:27.214Z,76.90
2023-03-26T11:40:03.220Z,78.88
2023-03-26T11:42:36.162Z,78.86
2023-03-26T11:45:17.976Z,79.09
2023-03-26T11:47:54.941Z,77.61
2023-03-26T11:50:33.059Z,76.67
2023-03-26T11:53:17.355Z,75.57
2023-03-26T11:55:59.524Z,75.96
2023-03-26T11:58:37.017Z,74.82
2023-03-26T12:01:18.034Z,74.83
2023-03-26T12:04:07.831Z,74.59
2023-03-26T12:06:53.513Z,73.98
2023-03-26T12:09:27.331Z,74.07
2023-03-26T12:12:07.113Z,73.81
2023-03-26T12:14:39.172Z,72.58
2023-03-26T12:17:15.199Z,72.94
2023-03-26T12:19:51.124Z,71.86
2023-03-26T12:22:38.216Z,72.54
2023-03-26T12:25:21.751Z,72.50
2023-03-26T12:27:56.872Z,72.45
2023-03-26T12:30:31.250Z,70.95
2023-03-26T12:33:07.563Z,71.71
2023-03-26T12:35:41.541Z,72.69
2023-03-26T12:38:28.410Z,69.26
2023-03-26T12:44:42.259Z,70.60
2023-03-26T12:44:54.549Z,70.26
2023-03-26T12:47:57.773Z,66.24
2023-03-26T12:50:17.554Z,65.57
2023-03-26T12:53:11.174Z,67.04
2023-03-26T12:55:58.974Z,63.99
2023-03-26T12:58:48.323Z,63.76
2023-03-26T13:01:31.533Z,66.38
2023-03-26T13:04:18.154Z,63.82
2023-03-26T13:06:59.600Z,65.54
2023-03-26T13:09:53.182Z,65.76
2023-03-26T13:12:41.317Z,64.35
2023-03-26T13:15:24.757Z,63.41
2023-03-26T13:18:11.579Z,63.72
2023-03-26T13:20:57.772Z,64.20
2023-03-26T13:23:41.283Z,63.88
2023-03-26T13:26:22.770Z,63.21
2023-03-26T13:29:10.876Z,60.29
2023-03-26T13:31:51.976Z,60.54
2023-03-26T13:34:34.561Z,60.49
2023-03-26T13:37:17.177Z,61.54
2023-03-26T13:40:01.243Z,60.18
2023-03-26T13:42:46.344Z,60.42
2023-03-26T13:45:37.862Z,59.03
2023-03-26T13:48:17.852Z,59.62
2023-03-26T13:51:00.117Z,61.80
2023-03-26T13:53:38.299Z,62.41
2023-03-26T13:56:15.312Z,63.11
2023-03-26T13:58:54.098Z,61.29
2023-03-26T14:01:43.862Z,60.31
2023-03-26T14:04:25.100Z,60.64
2023-03-26T14:07:07.264Z,60.58
2023-03-26T14:09:48.640Z,59.94
2023-03-26T14:12:34.305Z,59.15
2023-03-26T14:15:11.990Z,58.46
2023-03-26T14:17:53.565Z,57.93
2023-03-26T14:20:57.602Z,59.54
2023-03-26T14:23:42.374Z,59.32
2023-03-26T14:26:29.917Z,59.33
2023-03-26T14:29:28.942Z,63.80
2023-03-26T14:32:24.519Z,61.09
2023-03-26T14:35:23.790Z,63.44
2023-03-26T14:38:10.436Z,60.93
2023-03-26T14:41:01.136Z,61.48
2023-03-26T14:43:55.884Z,62.92
2023-03-26T14:46:43.118Z,62.36
2023-03-26T14:49:37.133Z,61.21
2023-03-26T14:52:16.929Z,61.71
2023-03-26T14:54:55.789Z,60.99
2023-03-26T14:57:46.611Z,60.46
2023-03-26T15:00:48.421Z,59.21
2023-03-26T15:04:01.973Z,60.51
2023-03-26T15:07:19.188Z,60.37
2023-03-26T15:10:40.948Z,60.29
2023-03-26T15:13:42.790Z,60.42
2023-03-26T15:16:44.690Z,60.51
2023-03-26T15:19:52.345Z,60.44
2023-03-26T15:22:43.832Z,61.27
2023-03-26T15:25:45.903Z,60.64
2023-03-26T15:28:56.669Z,61.82
2023-03-26T15:31:54.225Z,62.89
2023-03-26T15:34:58.342Z,63.41
2023-03-26T15:37:59.963Z,64.46
2023-03-26T15:40:54.567Z,65.69
2023-03-26T15:43:33.489Z,65.12
2023-03-26T15:46:36.288Z,64.60
2023-03-26T15:49:17.166Z,65.86
2023-03-26T15:51:57.869Z,65.59
2023-03-26T15:54:34.523Z,65.08
2023-03-26T15:57:20.261Z,65.32
2023-03-26T16:00:12.772Z,64.65
2023-03-26T16:02:56.234Z,64.77
2023-03-26T16:05:39.473Z,64.25
2023-03-26T16:08:22.392Z,65.54
2023-03-26T16:10:58.585Z,64.55
2023-03-26T16:13:46.490Z,64.27
2023-03-26T16:16:28.491Z,63.93
2023-03-26T16:19:41.559Z,64.59
2023-03-26T16:22:19.010Z,64.78
2023-03-26T16:25:28.569Z,64.71
2023-03-26T16:28:30.888Z,64.55
2023-03-26T16:31:37.555Z,64.51
2023-03-26T16:34:42.426Z,64.40
2023-03-26T16:37:40.186Z,64.72
2023-03-26T16:40:31.228Z,64.54
2023-03-26T16:43:17.348Z,65.97
2023-03-26T16:45:55.358Z,65.86
2023-03-26T16:48:33.729Z,65.88
2023-03-26T16:51:19.065Z,65.88
2023-03-26T16:53:58.981Z,65.00
2023-03-26T16:56:39.058Z,65.50
2023-03-26T16:59:37.747Z,65.71
2023-03-26T17:02:25.161Z,66.53
2023-03-26T17:05:09.723Z,66.42
2023-03-26T17:07:50.582Z,66.86
2023-03-26T17:10:33.763Z,67.64
2023-03-26T17:13:11.304Z,68.44
2023-03-26T17:15:51.688Z,67.06
2023-03-26T17:18:39.172Z,68.38
2023-03-26T17:21:18.629Z,67.86
2023-03-26T17:24:15.388Z,67.76
2023-03-26T17:26:58.822Z,68.19
2023-03-26T17:29:55.205Z,68.09
2023-03-26T17:32:58.221Z,67.64
2023-03-26T17:35:42.944Z,69.53
2023-03-26T17:38:45.258Z,69.15
2023-03-26T17:41:58.209Z,69.63
2023-03-26T17:44:43.627Z,69.03
2023-03-26T17:47:28.335Z,69.18
2023-03-26T17:50:06.265Z,68.53
2023-03-26T17:52:52.706Z,69.76
2023-03-26T17:55:31.300Z,69.36
2023-03-26T17:58:08.889Z,69.45
2023-03-26T18:00:46.675Z,70.09
2023-03-26T18:03:24.696Z,69.36
2023-03-26T18:06:00.677Z,69.22
2023-03-26T18:08:45.678Z,68.62
2023-03-26T18:11:39.549Z,69.05
2023-03-26T18:14:42.496Z,68.46
2023-03-26T18:17:24.265Z,67.94
2023-03-26T18:19:58.574Z,67.62
2023-03-26T18:22:32.440Z,67.32
2023-03-26T18:25:05.941Z,67.30
2023-03-26T18:27:43.249Z,66.86
2023-03-26T18:30:23.146Z,67.58
2023-03-26T18:33:00.251Z,66.68
2023-03-26T18:35:55.933Z,66.88
2023-03-26T18:38:35.679Z,66.25
2023-03-26T18:41:20.238Z,64.44
2023-03-26T18:43:51.995Z,64.47
2023-03-26T18:46:28.061Z,65.63
2023-03-26T18:49:00.416Z,64.94
2023-03-26T18:51:43.216Z,64.53
2023-03-26T18:54:24.499Z,64.43
2023-03-26T18:56:59.345Z,64.30
2023-03-26T18:59:34.175Z,62.17
2023-03-26T19:02:16.962Z,61.86
2023-03-26T19:04:51.343Z,59.53
2023-03-26T19:07:27.605Z,59.45
2023-03-26T19:10:00.671Z,59.45
2023-03-26T19:12:37.157Z,60.13
2023-03-26T19:15:15.416Z,60.11
2023-03-26T19:17:57.116Z,59.91
2023-03-26T19:20:32.341Z,59.63
2023-03-26T19:23:05.664Z,59.83
2023-03-26T19:25:43.903Z,60.12
2023-03-26T19:28:22.134Z,61.15
2023-03-26T19:30:58.946Z,60.38
2023-03-26T19:33:41.031Z,60.74
2023-03-26T19:36:23.032Z,61.92
2023-03-26T19:38:57.509Z,60.71
2023-03-26T19:41:33.676Z,59.96
2023-03-26T19:44:19.611Z,60.70
2023-03-26T19:46:54.304Z,60.73
2023-03-26T19:49:35.452Z,61.38
2023-03-26T19:52:18.425Z,61.24
2023-03-26T19:55:00.066Z,61.31
2023-03-26T19:57:36.947Z,61.62
2023-03-26T20:00:16.782Z,61.84
2023-03-26T20:02:57.900Z,62.38
2023-03-26T20:05:36.929Z,62.00
2023-03-26T20:08:17.107Z,62.31
2023-03-26T20:10:49.622Z,62.85
2023-03-26T20:13:21.722Z,62.83
2023-03-26T20:16:05.534Z,62.61
2023-03-26T20:18:39.150Z,62.64
2023-03-26T20:21:17.857Z,63.09
2023-03-26T20:23:50.129Z,63.89
2023-03-26T20:26:24.571Z,64.12
2023-03-26T20:28:57.566Z,64.04
2023-03-26T20:31:30.763Z,64.80
2023-03-26T20:34:03.055Z,64.07
2023-03-26T20:36:39.670Z,64.19
2023-03-26T20:39:12.514Z,64.76
2023-03-26T20:41:49.066Z,66.10
2023-03-26T20:44:23.457Z,64.92
2023-03-26T20:46:57.699Z,65.85
2023-03-26T20:49:30.196Z,65.83
2023-03-26T20:52:05.577Z,65.47
2023-03-26T20:54:38.053Z,65.95
2023-03-26T20:57:13.937Z,66.15
2023-03-26T20:59:46.441Z,65.59
2023-03-26T21:02:20.766Z,66.55
2023-03-26T21:04:54.372Z,65.70
2023-03-26T21:07:29.695Z,63.74
2023-03-26T21:10:03.720Z,64.50
2023-03-26T21:12:43.853Z,65.26
2023-03-26T21:15:23.423Z,65.02
2023-03-26T21:17:58.234Z,65.44
2023-03-26T21:20:33.284Z,64.50
2023-03-26T21:23:14.994Z,64.71
2023-03-26T21:25:56.862Z,64.89
2023-03-26T21:28:42.224Z,64.93
2023-03-26T21:31:19.173Z,64.81
2023-03-26T21:33:55.740Z,65.06
2023-03-26T21:36:28.663Z,63.79
2023-03-26T21:39:06.908Z,64.11
2023-03-26T21:41:46.846Z,64.76
2023-03-26T21:44:21.966Z,64.34
2023-03-26T21:46:54.610Z,65.05
2023-03-26T21:49:27.687Z,64.93
2023-03-26T21:52:00.426Z,65.00
2023-03-26T21:54:37.431Z,65.91
2023-03-26T21:57:35.466Z,64.56
2023-03-26T22:00:15.987Z,64.68
2023-03-26T22:02:59.188Z,65.75
2023-03-26T22:05:42.032Z,66.92
2023-03-26T22:08:23.785Z,67.13
2023-03-26T22:10:59.087Z,66.86
2023-03-26T22:13:31.373Z,68.14
2023-03-26T22:16:03.916Z,68.03
2023-03-26T22:18:36.060Z,68.59
2023-03-26T22:21:09.142Z,67.99
2023-03-26T22:23:41.227Z,69.33
2023-03-26T22:26:16.706Z,69.35
2023-03-26T22:28:48.946Z,69.64
2023-03-26T22:31:21.655Z,69.98
2023-03-26T22:33:54.236Z,70.66
2023-03-26T22:36:27.850Z,70.95
2023-03-26T22:38:59.863Z,71.35
2023-03-26T22:41:35.330Z,72.05
2023-03-26T22:44:19.232Z,72.12
2023-03-26T22:46:55.016Z,72.57
2023-03-26T22:49:30.594Z,72.69
2023-03-26T22:52:03.196Z,72.72
2023-03-26T22:54:37.156Z,72.35
2023-03-26T22:57:12.403Z,73.01
2023-03-26T22:59:44.526Z,73.11
2023-03-26T23:02:17.452Z,72.59
2023-03-26T23:05:03.252Z,72.52
2023-03-26T23:07:36.336Z,72.09
2023-03-26T23:10:09.791Z,72.24
2023-03-26T23:12:45.197Z,71.78
2023-03-26T23:15:16.954Z,72.12
2023-03-26T23:17:54.736Z,72.67
2023-03-26T23:20:34.390Z,72.02
2023-03-26T23:23:09.732Z,71.13
2023-03-26T23:25:42.490Z,71.46
2023-03-26T23:28:26.326Z,71.93
2023-03-26T23:31:03.136Z,71.86
2023-03-26T23:33:40.396Z,72.61
2023-03-26T23:36:13.426Z,72.94
2023-03-26T23:38:47.215Z,72.91
2023-03-26T23:41:25.741Z,73.33
2023-03-26T23:44:02.616Z,73.06
2023-03-26T23:46:36.609Z,74.03
2023-03-26T23:49:17.455Z,73.78
2023-03-26T23:51:54.903Z,73.95
2023-03-26T23:54:28.471Z,73.81
2023-03-26T23:57:02.262Z,73.30
2023-03-26T23:59:39.031Z,74.50
